Time;durP1;ratioP1;P1;durP2;ratioP2;P2;SDS_P1;SDS_P2;PMS_P1;PMS_P2;Temp;Humidity;BMP_temperature;BMP_pressure;BME280_temperature;BME280_humidity;BME280_pressure;Samples;Min_cycle;Max_cycle;Signal;HPM_P1;HPM_P2
2023/01/22 00:00:02;;;;;;;2.42;0.70;;;18.30;66.20;;;;;;4492443;31;20117;-66
2023/01/22 00:02:28;;;;;;;2.33;0.77;;;18.30;66.20;;;;;;4492382;31;20143;-66
2023/01/22 00:04:54;;;;;;;3.03;0.80;;;18.30;66.20;;;;;;4481409;31;20129;-66
2023/01/22 00:07:20;;;;;;;3.42;0.70;;;18.30;66.10;;;;;;4467970;32;20141;-66
2023/01/22 00:09:47;;;;;;;1.45;0.77;;;18.20;66.20;;;;;;4491884;31;20202;-66
2023/01/22 00:12:14;;;;;;;2.03;0.70;;;18.20;66.10;;;;;;4496753;31;20136;-66
2023/01/22 00:14:41;;;;;;;1.55;0.80;;;18.20;66.10;;;;;;4498319;31;20517;-66
2023/01/22 00:17:06;;;;;;;1.45;0.60;;;18.20;66.10;;;;;;4471502;32;20117;-66
2023/01/22 00:19:36;;;;;;;1.00;0.60;;;18.20;66.20;;;;;;4481470;32;20136;-66
2023/01/22 00:22:02;;;;;;;1.05;0.60;;;18.20;66.20;;;;;;4454966;32;20152;-66
2023/01/22 00:24:28;;;;;;;1.13;0.60;;;18.20;66.10;;;;;;4497653;32;20660;-66
2023/01/22 00:26:54;;;;;;;2.65;0.60;;;18.20;66.20;;;;;;4497928;32;20492;-65
2023/01/22 00:29:19;;;;;;;0.63;0.50;;;18.10;66.10;;;;;;4467374;32;20747;-66
2023/01/22 00:31:45;;;;;;;1.80;0.70;;;18.10;66.10;;;;;;4491051;32;20132;-66
2023/01/22 00:34:11;;;;;;;2.35;0.90;;;18.10;66.10;;;;;;4496411;32;20120;-66
2023/01/22 00:36:40;;;;;;;1.75;0.70;;;18.10;66.10;;;;;;4476696;32;20132;-66
2023/01/22 00:39:06;;;;;;;1.58;0.70;;;18.10;66.10;;;;;;4493039;32;20141;-65
2023/01/22 00:41:32;;;;;;;1.27;0.55;;;18.10;66.10;;;;;;4477689;32;20611;-66
2023/01/22 00:44:02;;;;;;;2.88;0.95;;;18.00;66.00;;;;;;4476206;32;20077;-66
2023/01/22 00:46:27;;;;;;;3.13;0.80;;;18.00;66.00;;;;;;4466911;32;20191;-66
2023/01/22 00:48:53;;;;;;;1.00;0.65;;;18.00;66.10;;;;;;4481138;32;20121;-66
2023/01/22 00:51:19;;;;;;;1.65;0.60;;;18.00;66.10;;;;;;4494659;32;20574;-66
2023/01/22 00:53:45;;;;;;;1.75;0.75;;;18.00;66.10;;;;;;4475796;32;20552;-66
2023/01/22 00:56:13;;;;;;;1.55;0.80;;;18.00;66.00;;;;;;4492930;32;20148;-67
2023/01/22 00:58:39;;;;;;;1.48;0.50;;;18.00;66.10;;;;;;4495940;32;20172;-67
2023/01/22 01:01:06;;;;;;;1.70;0.80;;;18.00;66.10;;;;;;4495836;32;20139;-65
2023/01/22 01:03:33;;;;;;;1.35;0.75;;;18.00;66.90;;;;;;4490904;32;20633;-67
2023/01/22 01:06:04;;;;;;;2.10;0.60;;;18.00;66.10;;;;;;4497228;32;20140;-66
2023/01/22 01:08:32;;;;;;;1.08;0.73;;;17.90;66.00;;;;;;4491686;32;20182;-66
2023/01/22 01:11:04;;;;;;;1.67;0.68;;;18.00;66.10;;;;;;4497264;32;20148;-66
2023/01/22 01:13:40;;;;;;;2.25;0.70;;;17.90;66.00;;;;;;4492952;32;20163;-66
2023/01/22 01:16:10;;;;;;;1.00;0.50;;;17.90;66.00;;;;;;4482468;32;20485;-66
2023/01/22 01:18:37;;;;;;;1.38;0.70;;;17.90;66.00;;;;;;4497051;32;20088;-65
2023/01/22 01:21:06;;;;;;;1.25;0.55;;;17.90;66.00;;;;;;4483570;31;20145;-66
2023/01/22 01:23:32;;;;;;;1.25;0.65;;;17.80;66.00;;;;;;4497505;31;20136;-66
2023/01/22 01:25:58;;;;;;;1.40;0.75;;;17.80;66.00;;;;;;4484415;31;20187;-66
2023/01/22 01:28:24;;;;;;;1.20;0.70;;;17.80;66.00;;;;;;4495332;31;20255;-65
2023/01/22 01:30:50;;;;;;;1.45;0.60;;;17.80;66.00;;;;;;4493848;31;20566;-66
2023/01/22 01:33:16;;;;;;;1.23;0.70;;;17.80;66.00;;;;;;4496338;31;20132;-66
2023/01/22 01:35:42;;;;;;;1.77;0.55;;;17.80;66.10;;;;;;4496313;31;20601;-66
2023/01/22 01:38:10;;;;;;;1.17;0.63;;;17.80;66.10;;;;;;4484417;31;20149;-65
2023/01/22 01:40:43;;;;;;;1.17;0.60;;;17.80;66.10;;;;;;4499533;31;20128;-66
2023/01/22 01:43:15;;;;;;;0.50;0.47;;;17.80;66.00;;;;;;4482598;31;20137;-65
2023/01/22 01:45:41;;;;;;;1.48;0.63;;;17.80;66.10;;;;;;4499367;31;20128;-66
2023/01/22 01:48:40;;;;;;;1.23;0.70;;;17.70;66.00;;;;;;4498936;31;20151;-65
2023/01/22 01:51:08;;;;;;;0.80;0.45;;;17.80;66.00;;;;;;4497349;31;20582;-65
2023/01/22 01:53:36;;;;;;;1.08;0.50;;;17.70;66.00;;;;;;4499070;31;20513;-65
2023/01/22 01:56:24;;;;;;;1.08;0.50;;;17.70;66.10;;;;;;4485164;31;20160;-66
2023/01/22 01:58:55;;;;;;;1.08;0.70;;;17.70;66.10;;;;;;4498654;31;20133;-66
2023/01/22 02:01:21;;;;;;;1.42;0.43;;;17.70;66.10;;;;;;4498460;31;20097;-65
2023/01/22 02:03:49;;;;;;;1.13;0.38;;;17.60;66.00;;;;;;4482980;31;20148;-65
2023/01/22 02:06:17;;;;;;;1.30;0.60;;;17.60;66.10;;;;;;4498772;31;20148;-65
2023/01/22 02:08:46;;;;;;;1.48;0.70;;;17.60;66.10;;;;;;4497058;31;20167;-66
2023/01/22 02:11:18;;;;;;;1.48;0.60;;;17.60;66.10;;;;;;4498662;31;20470;-66
2023/01/22 02:13:55;;;;;;;0.85;0.50;;;17.60;66.10;;;;;;4497726;31;20617;-65
2023/01/22 02:16:22;;;;;;;1.20;0.70;;;17.60;66.10;;;;;;4497518;31;20152;-65
2023/01/22 02:18:48;;;;;;;0.80;0.50;;;17.60;66.10;;;;;;4498885;31;20113;-65
2023/01/22 02:21:36;;;;;;;1.40;0.60;;;17.60;66.10;;;;;;4475091;31;20194;-66
2023/01/22 02:24:11;;;;;;;1.60;0.60;;;17.60;66.00;;;;;;4488479;31;20182;-65
2023/01/22 02:26:38;;;;;;;1.20;0.50;;;17.60;66.10;;;;;;4484662;31;20155;-65
2023/01/22 02:29:06;;;;;;;1.92;0.60;;;17.60;66.10;;;;;;4481099;31;20265;-65
2023/01/22 02:31:34;;;;;;;0.45;0.30;;;17.50;66.10;;;;;;4485042;31;20137;-65
2023/01/22 02:34:04;;;;;;;0.82;0.50;;;17.50;66.10;;;;;;4479853;31;20271;-66
2023/01/22 02:36:32;;;;;;;1.35;0.60;;;17.50;66.10;;;;;;4498348;31;20140;-66
2023/01/22 02:38:58;;;;;;;0.95;0.50;;;17.50;66.00;;;;;;4496670;31;20141;-65
2023/01/22 02:41:25;;;;;;;0.65;0.40;;;17.50;66.10;;;;;;4497932;31;20132;-65
2023/01/22 02:43:51;;;;;;;0.80;0.50;;;17.50;66.00;;;;;;4497637;31;20144;-65
2023/01/22 02:46:16;;;;;;;1.35;0.70;;;17.50;66.10;;;;;;4482792;31;20109;-66
2023/01/22 02:48:42;;;;;;;1.58;0.63;;;17.50;66.00;;;;;;4498123;31;20125;-65
2023/01/22 02:51:08;;;;;;;0.73;0.40;;;17.50;66.10;;;;;;4482069;31;20222;-65
2023/01/22 02:53:34;;;;;;;0.43;0.32;;;17.50;66.10;;;;;;4483841;31;20143;-65
2023/01/22 02:56:08;;;;;;;1.17;0.35;;;17.50;66.10;;;;;;4496441;31;20186;-65
2023/01/22 02:58:34;;;;;;;2.28;0.70;;;17.50;66.10;;;;;;4493917;31;20140;-65
2023/01/22 03:01:17;;;;;;;1.35;0.50;;;17.50;66.10;;;;;;4479075;31;20129;-65
2023/01/22 03:03:51;;;;;;;0.57;0.30;;;17.50;66.10;;;;;;4491755;31;20152;-65
2023/01/22 03:06:21;;;;;;;0.95;0.38;;;17.50;66.10;;;;;;4497844;31;20210;-66
2023/01/22 03:08:48;;;;;;;0.90;0.38;;;17.40;66.10;;;;;;4481681;31;20549;-65
2023/01/22 03:11:15;;;;;;;0.90;0.43;;;17.40;66.10;;;;;;4497489;31;20128;-65
2023/01/22 03:21:55;;;;;;;0.75;0.30;;;17.40;66.10;;;;;;4496076;31;20140;-65
2023/01/22 03:24:21;;;;;;;2.28;0.40;;;17.30;66.10;;;;;;4482974;31;20136;-65
2023/01/22 03:26:47;;;;;;;0.80;0.45;;;17.30;66.10;;;;;;4497288;31;20131;-65
2023/01/22 03:29:13;;;;;;;0.68;0.30;;;17.30;66.10;;;;;;4480244;32;20128;-65
2023/01/22 03:31:39;;;;;;;0.30;0.30;;;17.30;66.10;;;;;;4480596;31;20249;-65
2023/01/22 03:34:05;;;;;;;0.40;0.30;;;17.30;66.10;;;;;;4492943;31;20152;-66
2023/01/22 03:36:31;;;;;;;1.13;0.40;;;17.30;66.10;;;;;;4494436;31;20133;-65
2023/01/22 03:38:57;;;;;;;0.82;0.60;;;17.30;66.10;;;;;;4497115;31;20160;-64
2023/01/22 03:41:23;;;;;;;0.75;0.40;;;17.30;66.10;;;;;;4498116;31;20112;-65
2023/01/22 03:43:49;;;;;;;0.82;0.25;;;17.30;66.00;;;;;;4483254;31;20184;-65
2023/01/22 03:46:18;;;;;;;0.75;0.40;;;17.30;66.00;;;;;;4480595;32;20266;-65
2023/01/22 03:48:48;;;;;;;0.43;0.30;;;17.30;66.00;;;;;;4494933;31;20526;-65
2023/01/22 03:51:15;;;;;;;1.02;0.45;;;17.30;65.90;;;;;;4496946;31;20148;-65
2023/01/22 03:53:43;;;;;;;1.90;0.47;;;17.30;65.90;;;;;;4481718;31;20132;-65
2023/01/22 03:56:20;;;;;;;0.77;0.40;;;17.30;65.90;;;;;;4480335;32;20156;-65
2023/01/22 03:58:48;;;;;;;1.17;0.40;;;17.30;65.80;;;;;;4492249;31;20146;-65
2023/01/22 04:01:16;;;;;;;0.70;0.40;;;17.30;65.80;;;;;;4498045;31;20142;-65
2023/01/22 04:03:42;;;;;;;0.80;0.50;;;17.30;65.70;;;;;;4480142;32;20247;-65
2023/01/22 04:06:16;;;;;;;0.60;0.38;;;17.30;65.70;;;;;;4498213;31;20155;-66
2023/01/22 04:08:44;;;;;;;0.50;0.35;;;17.40;65.60;;;;;;4479805;32;20148;-66
2023/01/22 04:11:11;;;;;;;0.63;0.30;;;17.40;65.60;;;;;;4496694;31;20148;-66
2023/01/22 04:13:39;;;;;;;1.25;0.40;;;17.40;65.50;;;;;;4480618;32;20148;-66
2023/01/22 04:16:15;;;;;;;0.80;0.30;;;17.40;65.40;;;;;;4494773;32;20151;-66
2023/01/22 04:18:43;;;;;;;0.63;0.40;;;17.40;65.40;;;;;;4498123;32;20116;-65
2023/01/22 04:21:09;;;;;;;0.50;0.32;;;17.40;65.40;;;;;;4471464;32;20203;-66
2023/01/22 04:23:35;;;;;;;0.40;0.28;;;17.40;65.30;;;;;;4481429;32;20258;-66
2023/01/22 04:26:01;;;;;;;0.50;0.40;;;17.40;65.30;;;;;;4491631;32;20120;-66
2023/01/22 04:28:27;;;;;;;0.40;0.30;;;17.40;65.30;;;;;;4497921;32;20610;-66
2023/01/22 04:30:54;;;;;;;0.60;0.30;;;17.40;65.20;;;;;;4473432;32;20186;-65
2023/01/22 04:33:20;;;;;;;0.73;0.38;;;17.40;65.20;;;;;;4495396;32;20128;-66
2023/01/22 04:35:51;;;;;;;0.50;0.20;;;17.40;65.20;;;;;;4496735;32;20501;-66
2023/01/22 04:38:17;;;;;;;0.73;0.30;;;17.50;65.20;;;;;;4496599;32;20133;-65
2023/01/22 04:40:43;;;;;;;1.15;0.32;;;17.40;65.20;;;;;;4470864;32;20097;-65
2023/01/22 04:43:09;;;;;;;0.73;0.30;;;17.40;65.10;;;;;;4496485;32;20151;-65
2023/01/22 04:45:35;;;;;;;0.77;0.47;;;17.40;65.10;;;;;;4497762;32;20199;-66
2023/01/22 04:48:01;;;;;;;1.08;0.30;;;17.40;65.10;;;;;;4497396;32;20680;-65
2023/01/22 04:50:30;;;;;;;1.00;0.30;;;17.40;65.00;;;;;;4496939;32;20151;-65
2023/01/22 04:52:57;;;;;;;0.32;0.20;;;17.50;65.10;;;;;;4497874;32;20109;-65
2023/01/22 04:55:24;;;;;;;1.10;0.40;;;17.50;65.10;;;;;;4497578;31;20617;-66
2023/01/22 04:57:53;;;;;;;0.60;0.40;;;17.50;65.10;;;;;;4484158;32;20183;-65
2023/01/22 05:00:19;;;;;;;1.17;0.40;;;17.50;65.00;;;;;;4494892;31;20164;-65
2023/01/22 05:02:48;;;;;;;0.70;0.40;;;17.50;65.00;;;;;;4500753;31;20120;-65
2023/01/22 05:05:14;;;;;;;1.02;0.38;;;17.50;64.90;;;;;;4475043;31;20211;-65
2023/01/22 05:07:40;;;;;;;1.42;0.47;;;17.50;64.90;;;;;;4499662;31;20158;-66
2023/01/22 05:10:06;;;;;;;0.30;0.30;;;17.50;64.80;;;;;;4500662;31;20187;-65
2023/01/22 05:12:33;;;;;;;0.50;0.20;;;17.50;64.80;;;;;;4472040;31;20128;-65
2023/01/22 05:14:59;;;;;;;0.77;0.30;;;17.50;64.70;;;;;;4500815;31;20128;-66
2023/01/22 05:17:25;;;;;;;0.80;0.35;;;17.50;64.80;;;;;;4472145;31;20139;-65
2023/01/22 05:19:52;;;;;;;0.60;0.28;;;17.50;64.70;;;;;;4483516;32;20140;-66
2023/01/22 05:22:17;;;;;;;0.90;0.47;;;17.50;64.70;;;;;;4478711;31;20131;-65
2023/01/22 05:24:44;;;;;;;0.45;0.20;;;17.50;64.60;;;;;;4485438;31;20574;-66
2023/01/22 05:27:10;;;;;;;0.98;0.30;;;17.50;64.70;;;;;;4479193;32;20521;-66
2023/01/22 05:29:35;;;;;;;0.85;0.30;;;17.50;64.70;;;;;;4495003;31;20596;-65
2023/01/22 05:32:01;;;;;;;0.75;0.40;;;17.50;64.70;;;;;;4486220;31;20140;-66
2023/01/22 05:34:27;;;;;;;0.55;0.30;;;17.50;64.70;;;;;;4498959;31;20543;-65
2023/01/22 05:36:56;;;;;;;0.68;0.25;;;17.40;64.70;;;;;;4470892;32;20129;-66
2023/01/22 05:39:22;;;;;;;0.57;0.25;;;17.40;64.70;;;;;;4492796;31;20179;-64
2023/01/22 05:41:47;;;;;;;0.50;0.40;;;17.40;64.80;;;;;;4499299;31;20283;-66
2023/01/22 05:44:15;;;;;;;0.40;0.30;;;17.40;64.80;;;;;;4500163;31;20208;-65
2023/01/22 05:46:41;;;;;;;0.63;0.20;;;17.40;64.80;;;;;;4473439;31;20207;-65
2023/01/22 05:49:07;;;;;;;0.28;0.13;;;17.40;64.80;;;;;;4479935;32;20880;-66
2023/01/22 05:51:33;;;;;;;0.40;0.28;;;17.40;64.90;;;;;;4493674;31;20109;-66
2023/01/22 05:53:59;;;;;;;0.63;0.30;;;17.30;64.80;;;;;;4499964;31;20116;-66
2023/01/22 05:56:25;;;;;;;0.63;0.20;;;17.40;64.90;;;;;;4499236;31;20168;-65
2023/01/22 05:58:51;;;;;;;0.95;0.20;;;17.30;64.90;;;;;;4482487;31;20246;-66
2023/01/22 06:01:18;;;;;;;1.20;0.38;;;17.30;64.80;;;;;;4482828;32;20089;-65
2023/01/22 06:03:44;;;;;;;0.30;0.28;;;17.30;64.90;;;;;;4495449;31;20509;-65
2023/01/22 06:06:12;;;;;;;1.10;0.30;;;17.30;64.90;;;;;;4482860;32;20841;-65
2023/01/22 06:08:38;;;;;;;1.20;0.20;;;17.30;64.90;;;;;;4493934;31;20213;-65
2023/01/22 06:11:11;;;;;;;0.30;0.10;;;17.30;64.90;;;;;;4499740;31;20135;-66
2023/01/22 06:13:37;;;;;;;0.40;0.20;;;17.30;65.00;;;;;;4482177;32;20132;-65
2023/01/22 06:16:04;;;;;;;0.20;0.17;;;17.30;65.00;;;;;;4495462;31;20140;-66
2023/01/22 06:18:30;;;;;;;0.35;0.22;;;17.30;65.00;;;;;;4499674;31;20686;-65
2023/01/22 06:21:02;;;;;;;0.40;0.17;;;17.30;65.00;;;;;;4498315;31;20278;-66
2023/01/22 06:23:28;;;;;;;0.30;0.20;;;17.20;64.90;;;;;;4483132;32;20238;-65
2023/01/22 06:25:56;;;;;;;0.30;0.15;;;17.30;65.00;;;;;;4492383;31;20145;-65
2023/01/22 06:28:23;;;;;;;0.60;0.40;;;17.20;65.00;;;;;;4482510;32;20653;-66
2023/01/22 06:30:49;;;;;;;0.55;0.30;;;17.20;64.90;;;;;;4491194;31;20132;-66
2023/01/22 06:33:14;;;;;;;0.50;0.30;;;17.20;64.90;;;;;;4498493;31;20198;-65
2023/01/22 06:35:40;;;;;;;1.02;0.40;;;17.20;64.90;;;;;;4478170;32;20128;-65
2023/01/22 06:38:07;;;;;;;0.60;0.20;;;17.20;65.00;;;;;;4494071;31;20151;-66
2023/01/22 06:40:33;;;;;;;0.30;0.20;;;17.20;64.90;;;;;;4499288;31;20132;-65
2023/01/22 06:43:07;;;;;;;0.57;0.30;;;17.20;64.90;;;;;;4498013;31;20324;-66
2023/01/22 06:45:33;;;;;;;0.80;0.40;;;17.20;65.00;;;;;;4480111;32;20147;-66
2023/01/22 06:47:59;;;;;;;0.63;0.30;;;17.20;64.90;;;;;;4455905;32;20129;-65
2023/01/22 06:50:25;;;;;;;0.17;0.13;;;17.20;65.00;;;;;;4497046;31;20121;-66
2023/01/22 06:52:51;;;;;;;0.35;0.10;;;17.20;65.00;;;;;;4499149;31;20109;-66
2023/01/22 06:55:17;;;;;;;0.40;0.20;;;17.20;64.90;;;;;;4497601;31;20266;-65
2023/01/22 06:57:43;;;;;;;0.40;0.30;;;17.20;65.00;;;;;;4499169;31;20143;-65
2023/01/22 07:00:09;;;;;;;0.55;0.22;;;17.10;64.90;;;;;;4472155;31;20125;-66
2023/01/22 07:02:36;;;;;;;0.30;0.10;;;17.10;64.90;;;;;;4499134;31;20296;-65
2023/01/22 07:05:02;;;;;;;0.70;0.30;;;17.10;65.80;;;;;;4473946;32;20144;-65
2023/01/22 07:07:38;;;;;;;0.70;0.30;;;17.10;64.90;;;;;;4469425;32;20622;-65
2023/01/22 07:10:04;;;;;;;0.50;0.20;;;17.10;65.00;;;;;;4492743;31;20148;-66
2023/01/22 07:12:34;;;;;;;0.60;0.30;;;17.10;64.90;;;;;;4497358;31;20139;-66
2023/01/22 07:15:00;;;;;;;0.22;0.20;;;17.10;64.90;;;;;;4498927;31;20112;-65
2023/01/22 07:17:29;;;;;;;0.65;0.22;;;17.10;65.00;;;;;;4480223;32;20678;-65
2023/01/22 07:19:55;;;;;;;0.30;0.20;;;17.10;64.90;;;;;;4497878;31;20136;-65
2023/01/22 07:22:22;;;;;;;0.38;0.20;;;17.10;64.90;;;;;;4475266;32;20560;-66
2023/01/22 07:24:48;;;;;;;0.40;0.10;;;17.10;64.90;;;;;;4467746;32;20148;-65
2023/01/22 07:27:14;;;;;;;0.75;0.20;;;17.10;64.90;;;;;;4456001;32;20129;-65
2023/01/22 07:29:40;;;;;;;0.57;0.30;;;17.10;64.90;;;;;;4468470;31;20190;-65
2023/01/22 07:32:06;;;;;;;0.50;0.25;;;17.10;64.90;;;;;;4498413;31;20159;-65
2023/01/22 07:34:32;;;;;;;0.88;0.30;;;17.10;64.90;;;;;;4497086;31;20184;-65
2023/01/22 07:37:00;;;;;;;0.88;0.30;;;17.10;64.90;;;;;;4469136;31;20141;-65
2023/01/22 07:39:26;;;;;;;0.20;0.20;;;17.10;64.90;;;;;;4483622;31;20121;-64
2023/01/22 07:41:52;;;;;;;0.45;0.20;;;17.10;64.90;;;;;;4495867;31;20233;-65
2023/01/22 07:44:18;;;;;;;0.50;0.25;;;17.00;64.80;;;;;;4497816;31;20567;-65
2023/01/22 07:46:44;;;;;;;0.47;0.20;;;17.10;65.00;;;;;;4482321;31;20120;-66
2023/01/22 07:49:10;;;;;;;0.43;0.28;;;17.00;64.90;;;;;;4483951;31;20116;-65
2023/01/22 07:51:36;;;;;;;0.30;0.20;;;17.00;65.80;;;;;;4482274;31;20140;-66
2023/01/22 07:54:02;;;;;;;1.08;0.30;;;17.10;65.00;;;;;;4497886;31;20541;-66
2023/01/22 07:56:28;;;;;;;0.40;0.20;;;17.00;64.90;;;;;;4497085;31;20125;-65
2023/01/22 07:58:54;;;;;;;0.25;0.20;;;17.00;64.90;;;;;;4496893;31;20139;-66
2023/01/22 08:01:20;;;;;;;0.47;0.22;;;17.00;64.90;;;;;;4480952;32;20589;-65
2023/01/22 08:03:46;;;;;;;0.43;0.20;;;17.00;64.90;;;;;;4479852;31;20120;-65
2023/01/22 08:06:16;;;;;;;0.45;0.30;;;17.00;64.90;;;;;;4464321;31;20116;-65
2023/01/22 08:08:42;;;;;;;0.32;0.20;;;17.00;64.90;;;;;;4478679;31;20125;-65
2023/01/22 08:11:08;;;;;;;0.80;0.25;;;17.00;64.90;;;;;;4483930;31;20144;-66
2023/01/22 08:13:35;;;;;;;0.20;0.20;;;17.00;64.90;;;;;;4497688;31;20470;-65
2023/01/22 08:16:01;;;;;;;0.43;0.20;;;17.00;64.90;;;;;;4470090;31;20558;-66
2023/01/22 08:18:28;;;;;;;0.20;0.20;;;17.00;64.90;;;;;;4498086;31;20233;-65
2023/01/22 08:20:54;;;;;;;0.32;0.22;;;17.00;64.90;;;;;;4496778;32;20133;-65
2023/01/22 08:23:20;;;;;;;0.40;0.25;;;17.00;64.90;;;;;;4468671;32;20132;-65
2023/01/22 08:25:46;;;;;;;0.52;0.20;;;17.00;64.90;;;;;;4474269;32;20116;-66
2023/01/22 08:28:12;;;;;;;2.05;0.40;;;17.00;64.90;;;;;;4482732;32;20172;-66
2023/01/22 08:30:38;;;;;;;2.22;0.38;;;16.90;65.00;;;;;;4499130;31;20183;-66
2023/01/22 08:33:04;;;;;;;1.27;0.40;;;16.90;65.20;;;;;;4499992;31;20128;-65
2023/01/22 08:35:30;;;;;;;3.55;0.73;;;17.00;65.40;;;;;;4499723;31;20087;-65
2023/01/22 08:38:00;;;;;;;3.47;0.40;;;16.90;65.50;;;;;;4491360;31;20149;-65
2023/01/22 08:40:31;;;;;;;7.90;0.47;;;17.00;65.50;;;;;;4490622;31;20131;-65
2023/01/22 08:42:57;;;;;;;2.35;0.30;;;17.10;65.20;;;;;;4491757;31;20121;-65
2023/01/22 08:45:23;;;;;;;0.60;0.25;;;17.20;64.90;;;;;;4470211;32;20214;-65
2023/01/22 08:48:07;;;;;;;0.45;0.20;;;17.40;64.60;;;;;;4491924;31;20081;-65
2023/01/22 08:50:33;;;;;;;0.50;0.20;;;17.50;64.20;;;;;;4494889;31;20127;-65
2023/01/22 08:53:00;;;;;;;0.85;0.30;;;17.70;63.80;;;;;;4480134;31;20143;-65
2023/01/22 08:55:28;;;;;;;0.20;0.10;;;17.80;63.40;;;;;;4483861;31;20131;-65
2023/01/22 08:58:04;;;;;;;2.05;0.20;;;18.00;63.10;;;;;;4467069;31;20216;-65
2023/01/22 09:00:30;;;;;;;0.90;0.20;;;18.10;62.60;;;;;;4483292;31;20187;-65
2023/01/22 09:02:59;;;;;;;3.03;0.40;;;18.30;62.30;;;;;;4495006;31;20120;-65
2023/01/22 09:05:25;;;;;;;0.93;0.10;;;18.40;62.00;;;;;;4483013;31;20081;-65
2023/01/22 09:07:51;;;;;;;0.60;0.30;;;18.60;61.60;;;;;;4480835;31;20147;-65
2023/01/22 09:10:17;;;;;;;0.65;0.40;;;18.70;61.30;;;;;;4496616;31;20113;-65
2023/01/22 09:12:43;;;;;;;0.43;0.25;;;18.80;60.90;;;;;;4499025;31;20135;-65
2023/01/22 09:15:09;;;;;;;0.85;0.22;;;19.00;60.60;;;;;;4500744;31;20128;-65
2023/01/22 09:17:35;;;;;;;0.95;0.43;;;19.10;60.40;;;;;;4499503;31;20241;-66
2023/01/22 09:20:01;;;;;;;1.65;0.40;;;19.20;60.10;;;;;;4500314;31;20702;-66
2023/01/22 09:22:27;;;;;;;0.93;0.40;;;19.30;60.00;;;;;;4476666;32;20194;-65
2023/01/22 09:25:03;;;;;;;0.38;0.22;;;19.30;60.00;;;;;;4473416;31;20442;-66
2023/01/22 09:27:29;;;;;;;0.73;0.13;;;19.40;60.00;;;;;;4477553;32;20626;-65
2023/01/22 09:29:55;;;;;;;0.73;0.20;;;19.40;59.90;;;;;;4496821;31;20132;-65
2023/01/22 09:32:21;;;;;;;1.15;0.47;;;19.40;59.80;;;;;;4498322;31;20132;-65
2023/01/22 09:34:50;;;;;;;1.08;0.25;;;19.40;59.90;;;;;;4485364;31;20144;-65
2023/01/22 09:37:16;;;;;;;1.20;0.20;;;19.40;59.70;;;;;;4483423;31;20120;-65
2023/01/22 09:39:42;;;;;;;1.75;0.10;;;19.50;59.80;;;;;;4481562;31;20088;-65
2023/01/22 09:42:19;;;;;;;1.17;0.30;;;19.40;59.70;;;;;;4495953;31;20601;-66
2023/01/22 09:44:49;;;;;;;0.60;0.10;;;19.40;59.70;;;;;;4495995;31;20173;-65
2023/01/22 09:47:20;;;;;;;0.50;0.20;;;19.50;59.70;;;;;;4476218;31;20148;-66
2023/01/22 09:49:52;;;;;;;2.67;0.22;;;19.50;59.60;;;;;;4496377;31;20166;-65
2023/01/22 09:52:19;;;;;;;2.05;0.30;;;19.60;59.60;;;;;;4493318;31;20128;-65
2023/01/22 09:54:45;;;;;;;1.75;0.52;;;19.60;59.70;;;;;;4484406;31;20145;-66
2023/01/22 09:57:14;;;;;;;1.05;0.20;;;19.60;59.70;;;;;;4483008;32;20117;-66
2023/01/22 09:59:54;;;;;;;0.30;0.20;;;19.60;59.80;;;;;;4486337;31;20266;-65
2023/01/22 10:02:34;;;;;;;0.75;0.30;;;19.60;59.90;;;;;;4497589;31;20145;-66
2023/01/22 10:05:31;;;;;;;3.70;0.20;;;19.70;60.00;;;;;;4476399;31;20144;-65
2023/01/22 10:08:24;;;;;;;0.80;0.20;;;19.60;60.00;;;;;;4485360;31;20136;-65
2023/01/22 10:11:10;;;;;;;1.00;0.30;;;19.70;60.10;;;;;;4486833;31;20129;-66
2023/01/22 10:13:59;;;;;;;1.60;0.30;;;19.70;60.10;;;;;;4487258;31;20159;-66
2023/01/22 10:16:45;;;;;;;0.75;0.20;;;19.70;60.20;;;;;;4479334;31;20192;-66
2023/01/22 10:19:41;;;;;;;0.90;0.38;;;19.70;60.30;;;;;;4487143;31;20251;-65
2023/01/22 10:22:17;;;;;;;0.57;0.20;;;19.70;60.40;;;;;;4483607;31;20129;-65
2023/01/22 10:24:43;;;;;;;3.15;0.55;;;19.70;60.40;;;;;;4483344;31;20599;-66
2023/01/22 10:27:15;;;;;;;0.57;0.20;;;19.70;60.40;;;;;;4476490;31;20509;-65
2023/01/22 10:30:20;;;;;;;0.80;0.38;;;19.70;60.50;;;;;;4495375;31;20330;-66
2023/01/22 10:33:01;;;;;;;1.30;0.40;;;19.70;60.60;;;;;;4483418;31;20678;-66
2023/01/22 10:35:30;;;;;;;1.67;0.35;;;19.60;60.50;;;;;;4483608;31;20507;-65
2023/01/22 10:37:57;;;;;;;1.77;0.20;;;19.60;60.50;;;;;;4478903;31;20125;-66
2023/01/22 10:40:33;;;;;;;1.80;0.28;;;19.70;60.40;;;;;;4483601;31;20139;-65
2023/01/22 10:43:11;;;;;;;1.10;0.20;;;19.70;60.40;;;;;;4479030;31;20124;-66
2023/01/22 10:45:48;;;;;;;1.08;0.30;;;19.60;60.30;;;;;;4479094;32;20291;-66
2023/01/22 10:48:16;;;;;;;1.58;0.20;;;19.60;60.50;;;;;;4488011;31;20089;-66
2023/01/22 10:50:43;;;;;;;0.70;0.32;;;19.60;60.80;;;;;;4483679;31;20125;-66
2023/01/22 10:53:18;;;;;;;0.77;0.20;;;19.50;61.80;;;;;;4492310;31;20137;-66
2023/01/22 10:55:55;;;;;;;1.73;0.60;;;19.40;61.20;;;;;;4487104;31;20137;-66
2023/01/22 10:58:23;;;;;;;4.03;0.47;;;19.30;61.40;;;;;;4474654;31;20210;-66
2023/01/22 11:01:05;;;;;;;0.70;0.20;;;19.20;61.60;;;;;;4492715;31;20128;-66
2023/01/22 11:03:43;;;;;;;;;;;19.20;61.70;;;;;;4489391;31;20120;-66
2023/01/22 11:06:35;;;;;;;0.88;0.25;;;19.20;61.80;;;;;;4477694;31;20021;-66
2023/01/22 11:09:16;;;;;;;1.77;0.30;;;19.20;61.60;;;;;;4490136;31;20282;-67
2023/01/22 11:12:02;;;;;;;2.42;0.50;;;19.30;61.60;;;;;;4487548;31;20132;-68
2023/01/22 11:14:36;;;;;;;2.42;0.40;;;19.30;61.40;;;;;;4499012;31;20600;-68
2023/01/22 11:17:41;;;;;;;3.45;0.40;;;19.50;61.30;;;;;;4480559;32;20266;-68
2023/01/22 11:20:20;;;;;;;0.73;0.40;;;19.60;61.00;;;;;;4483273;31;20125;-69
2023/01/22 11:23:09;;;;;;;2.47;0.60;;;19.60;60.80;;;;;;4482450;31;20129;-68
2023/01/22 11:26:22;;;;;;;3.00;0.65;;;19.80;60.80;;;;;;4497521;31;20589;-67
2023/01/22 11:28:50;;;;;;;4.03;0.80;;;19.80;60.40;;;;;;4470376;31;20132;-68
2023/01/22 11:31:55;;;;;;;4.40;0.90;;;19.70;59.50;;;;;;4497684;31;20143;-67
2023/01/22 11:34:45;;;;;;;3.75;0.88;;;19.60;58.70;;;;;;4417117;32;20214;-67
2023/01/22 11:37:44;;;;;;;1.52;0.60;;;19.60;58.80;;;;;;4475154;32;20202;-68
2023/01/22 11:40:30;;;;;;;1.38;0.70;;;19.70;58.90;;;;;;4447904;31;20143;-66
2023/01/22 11:43:21;;;;;;;2.67;0.70;;;19.70;59.10;;;;;;4482270;31;20202;-67
2023/01/22 11:45:55;;;;;;;1.45;0.57;;;19.70;59.10;;;;;;4497229;31;20133;-68
2023/01/22 11:48:33;;;;;;;1.92;0.60;;;19.80;59.20;;;;;;4483797;31;20497;-68
2023/01/22 11:51:18;;;;;;;1.42;0.43;;;19.80;59.30;;;;;;4496409;31;20151;-68
2023/01/22 11:53:48;;;;;;;1.85;0.50;;;19.80;59.30;;;;;;4493745;31;20164;-67
2023/01/22 11:56:52;;;;;;;5.13;0.80;;;19.80;59.30;;;;;;4496712;31;20141;-66
2023/01/22 11:59:30;;;;;;;4.10;0.85;;;19.90;59.40;;;;;;4495750;31;20137;-67
2023/01/22 12:02:33;;;;;;;2.30;0.40;;;19.80;59.40;;;;;;4496444;31;20186;-66
2023/01/22 12:05:12;;;;;;;2.28;0.73;;;19.80;59.50;;;;;;4496576;31;20194;-67
2023/01/22 12:07:44;;;;;;;1.88;0.57;;;19.80;59.60;;;;;;4496307;31;20133;-67
2023/01/22 12:10:33;;;;;;;1.10;0.30;;;19.90;59.70;;;;;;4497624;31;20604;-67
2023/01/22 12:13:04;;;;;;;4.78;0.70;;;19.80;59.60;;;;;;4496761;31;20162;-66
2023/01/22 12:15:51;;;;;;;2.80;0.50;;;19.80;59.70;;;;;;4497441;31;20578;-69
2023/01/22 12:18:45;;;;;;;3.25;0.60;;;19.80;59.70;;;;;;4494115;31;20423;-66
2023/01/22 12:21:11;;;;;;;;;;;19.80;59.70;;;;;;4493503;32;20151;-65
2023/01/22 12:23:51;;;;;;;5.97;0.90;;;19.90;59.80;;;;;;4497496;32;20037;-66
2023/01/22 12:26:24;;;;;;;3.20;0.60;;;19.90;60.70;;;;;;4482290;32;20162;-66
2023/01/22 12:28:53;;;;;;;;;;;19.90;59.60;;;;;;4497489;32;20151;-66
2023/01/22 12:31:41;;;;;;;3.50;0.60;;;19.90;59.80;;;;;;4483185;32;20536;-67
2023/01/22 12:34:33;;;;;;;6.32;0.82;;;19.80;59.60;;;;;;4489812;32;20683;-67
2023/01/22 12:37:01;;;;;;;9.00;0.93;;;19.70;59.60;;;;;;4482325;32;20183;-65
2023/01/22 12:39:35;;;;;;;1.88;0.60;;;19.60;59.70;;;;;;4490961;32;20494;-64
2023/01/22 12:42:04;;;;;;;3.03;1.08;;;19.50;59.60;;;;;;4486065;32;20148;-67
2023/01/22 12:45:16;;;;;;;5.63;0.95;;;19.50;59.70;;;;;;4484823;32;20558;-65
2023/01/22 12:47:45;;;;;;;12.27;0.88;;;19.40;59.70;;;;;;4475316;32;20139;-65
2023/01/22 12:50:22;;;;;;;5.57;0.70;;;19.30;59.90;;;;;;4488787;32;20125;-65
2023/01/22 12:53:00;;;;;;;1.60;0.70;;;19.20;60.00;;;;;;4491635;32;20125;-65
2023/01/22 12:55:40;;;;;;;4.45;0.80;;;19.20;60.10;;;;;;4486065;32;20146;-65
2023/01/22 12:58:20;;;;;;;5.93;0.93;;;19.10;60.30;;;;;;4477499;32;20140;-64
2023/01/22 13:01:19;;;;;;;2.65;0.60;;;19.10;60.40;;;;;;4487181;32;20163;-64
2023/01/22 13:03:59;;;;;;;2.15;0.88;;;19.10;60.60;;;;;;4479158;32;20128;-65
2023/01/22 13:06:33;;;;;;;1.45;0.35;;;19.00;60.70;;;;;;4484976;32;20207;-65
2023/01/22 13:09:00;;;;;;;7.38;0.80;;;19.00;61.60;;;;;;4486393;32;20629;-64
2023/01/22 13:11:29;;;;;;;2.47;0.70;;;19.00;60.90;;;;;;4496940;32;20394;-65
2023/01/22 13:14:18;;;;;;;2.70;0.80;;;18.90;60.90;;;;;;4497660;32;20092;-65